Time;durP1;ratioP1;P1;durP2;ratioP2;P2;SDS_P1;SDS_P2;PMS_P1;PMS_P2;Temp;Humidity;BMP_temperature;BMP_pressure;BME280_temperature;BME280_humidity;BME280_pressure;Samples;Min_cycle;Max_cycle;Signal;HPM_P1;HPM_P2
2022/03/30 00:00:23;;;;;;;;;55.00;44.75;;;;;13.03;69.45;99909.63;5008957;28;45336;-85
2022/03/30 00:02:49;;;;;;;;;51.25;40.50;;;;;12.85;69.42;99881.28;5009260;28;45307;-84
2022/03/30 00:05:14;;;;;;;;;51.00;42.75;;;;;12.87;69.58;99893.63;5008718;28;45480;-85
2022/03/30 00:07:40;;;;;;;;;56.75;45.50;;;;;12.93;69.64;99907.75;5009213;28;45136;-86
2022/03/30 00:10:05;;;;;;;;;53.33;45.00;;;;;12.74;69.95;99877.63;5009038;28;45160;-85
2022/03/30 00:12:33;;;;;;;;;53.50;43.75;;;;;12.98;69.82;99924.50;5006711;28;45842;-85
2022/03/30 00:14:59;;;;;;;;;53.50;42.75;;;;;12.55;69.66;99852.81;5003985;28;45229;-84
2022/03/30 00:17:24;;;;;;;;;43.00;37.75;;;;;12.60;69.77;99862.53;5007369;28;45807;-85
2022/03/30 00:19:49;;;;;;;;;56.00;45.25;;;;;12.60;69.71;99866.91;5007275;28;45259;-86
2022/03/30 00:22:15;;;;;;;;;50.67;41.00;;;;;12.35;69.77;99829.72;5006678;28;46108;-84
2022/03/30 00:24:43;;;;;;;;;54.75;44.00;;;;;12.52;70.11;99864.22;5005193;28;45082;-86
2022/03/30 00:27:09;;;;;;;;;51.75;43.00;;;;;12.58;70.09;99874.81;5006789;28;45336;-84
2022/03/30 00:29:35;;;;;;;;;51.00;42.00;;;;;12.78;69.97;99916.38;5003155;28;45253;-86
2022/03/30 00:32:00;;;;;;;;;52.25;42.25;;;;;12.49;70.13;99876.44;5007526;28;45697;-86
2022/03/30 00:34:25;;;;;;;;;50.00;41.00;;;;;12.49;70.05;99868.53;5006416;28;45170;-85
2022/03/30 00:36:51;;;;;;;;;53.00;42.67;;;;;12.65;70.52;99897.75;5007639;28;45040;-84
2022/03/30 00:39:18;;;;;;;;;49.25;40.50;;;;;12.25;70.23;99826.94;5005406;28;45353;-85
2022/03/30 00:41:45;;;;;;;;;46.50;39.00;;;;;12.58;70.22;99880.09;5008527;28;45997;-85
2022/03/30 00:44:12;;;;;;;;;50.00;41.75;;;;;12.39;70.28;99839.44;5006101;28;45499;-85
2022/03/30 00:46:38;;;;;;;;;52.00;43.25;;;;;12.61;70.29;99869.59;5007110;28;45090;-86
2022/03/30 00:49:04;;;;;;;;;44.50;38.25;;;;;12.51;70.37;99853.63;5008557;28;45153;-82
2022/03/30 00:51:30;;;;;;;;;49.75;41.00;;;;;12.70;70.37;99875.81;5008203;28;45637;-85
2022/03/30 00:53:56;;;;;;;;;51.50;41.00;;;;;12.82;70.64;99890.06;5007756;28;45099;-85
2022/03/30 00:56:22;;;;;;;;;47.00;40.50;;;;;12.55;70.19;99831.72;5006814;28;45228;-84
2022/03/30 00:58:48;;;;;;;;;48.25;40.25;;;;;12.70;70.37;99862.63;5008438;28;45307;-85
2022/03/30 01:01:14;;;;;;;;;51.00;42.00;;;;;12.44;70.24;99807.00;5007381;28;45411;-86
2022/03/30 01:03:39;;;;;;;;;45.25;38.00;;;;;12.63;70.27;99843.25;5007290;28;45031;-85
2022/03/30 01:06:04;;;;;;;;;47.00;41.00;;;;;12.63;70.21;99827.44;5006389;28;45034;-83
2022/03/30 01:08:30;;;;;;;;;47.33;41.00;;;;;12.87;70.21;99877.81;5008258;28;45086;-84
2022/03/30 01:10:55;;;;;;;;;50.75;41.00;;;;;12.53;70.42;99807.09;5007717;28;45224;-86
2022/03/30 01:13:21;;;;;;;;;51.00;41.00;;;;;12.55;70.41;99811.50;5004234;28;45183;-83
2022/03/30 01:15:46;;;;;;;;;52.75;42.75;;;;;12.92;70.84;99859.41;4990787;28;45039;-86
2022/03/30 01:18:12;;;;;;;;;52.75;42.75;;;;;12.85;70.72;99847.88;5007270;28;45213;-86
2022/03/30 01:20:38;;;;;;;;;53.50;44.50;;;;;12.93;70.69;99850.59;5008205;28;45227;-84
2022/03/30 01:23:03;;;;;;;;;53.25;43.75;;;;;13.06;70.53;99862.19;5007976;28;45082;-81
2022/03/30 01:25:29;;;;;;;;;55.25;43.00;;;;;12.85;70.61;99821.50;5006522;28;45461;-86
2022/03/30 01:27:55;;;;;;;;;47.75;40.50;;;;;12.94;70.42;99836.53;5008071;28;45204;-87
2022/03/30 01:33:06;;;;;;;;;52.75;42.75;;;;;13.10;70.19;99849.03;5006687;28;45138;-84
2022/03/30 01:35:32;;;;;;;;;52.00;42.00;;;;;12.97;70.39;99819.88;5006270;28;45115;-83
2022/03/30 01:37:58;;;;;;;;;53.50;43.25;;;;;12.90;70.12;99809.25;5003126;28;45414;-86
2022/03/30 01:40:24;;;;;;;;;46.00;40.00;;;;;12.97;69.91;99815.50;5000669;28;46736;-84
2022/03/30 01:42:49;;;;;;;;;50.75;42.00;;;;;13.03;70.10;99818.19;5007184;28;45062;-83
2022/03/30 01:45:16;;;;;;;;;56.25;45.25;;;;;13.12;69.91;99842.00;5003273;28;45015;-85
2022/03/30 01:47:48;;;;;;;;;53.75;43.50;;;;;13.11;69.88;99832.34;5008163;28;45108;-85
2022/03/30 01:50:13;;;;;;;;;48.75;40.25;;;;;12.76;69.56;99773.06;5003359;28;45888;-83
2022/03/30 01:52:39;;;;;;;;;50.50;41.50;;;;;12.80;69.57;99781.00;5007595;28;45222;-84
2022/03/30 01:55:05;;;;;;;;;48.00;38.67;;;;;12.78;69.78;99779.25;5005884;28;45217;-83
2022/03/30 01:57:30;;;;;;;;;53.75;45.75;;;;;12.69;69.78;99761.56;4986134;28;45349;-83
2022/03/30 01:59:56;;;;;;;;;52.00;42.50;;;;;12.97;70.02;99809.34;5004214;28;45920;-85
2022/03/30 02:02:21;;;;;;;;;53.00;43.75;;;;;12.68;70.16;99753.66;4987332;28;45298;-83
2022/03/30 02:04:47;;;;;;;;;51.75;43.00;;;;;12.61;70.19;99728.97;5009486;28;45548;-84
2022/03/30 02:07:12;;;;;;;;;49.67;41.00;;;;;12.75;70.05;99756.34;5009260;28;45113;-85
2022/03/30 02:09:38;;;;;;;;;47.50;40.50;;;;;12.59;70.15;99730.72;5009058;28;45171;-84
2022/03/30 02:12:05;;;;;;;;;50.00;42.25;;;;;12.60;70.23;99730.72;5006343;28;45504;-84
2022/03/30 02:14:30;;;;;;;;;53.25;42.50;;;;;12.91;70.06;99781.16;5004473;28;45412;-84
2022/03/30 02:16:56;;;;;;;;;51.00;42.00;;;;;12.94;70.28;99790.81;5005116;28;45371;-85
2022/03/30 02:19:21;;;;;;;;;52.75;42.50;;;;;13.00;70.37;99793.50;5008187;28;46971;-83
2022/03/30 02:21:47;;;;;;;;;54.00;41.00;;;;;12.79;70.33;99759.91;5007708;28;45449;-85
2022/03/30 02:24:13;;;;;;;;;50.75;42.00;;;;;12.66;70.25;99729.94;5007319;28;45243;-84
2022/03/30 02:26:38;;;;;;;;;50.00;41.00;;;;;12.62;70.47;99730.75;5010166;28;45313;-86
2022/03/30 02:29:03;;;;;;;;;50.25;41.25;;;;;12.84;70.45;99756.44;5008932;28;45289;-83
2022/03/30 02:31:29;;;;;;;;;50.50;41.25;;;;;12.91;70.27;99774.13;5006898;28;45210;-86
2022/03/30 02:33:54;;;;;;;;;52.25;42.50;;;;;12.97;70.38;99801.41;4989523;28;45345;-83
2022/03/30 02:36:20;;;;;;;;;50.75;42.50;;;;;12.69;70.39;99729.94;5007791;28;45135;-83
2022/03/30 02:38:45;;;;;;;;;53.00;42.25;;;;;12.99;70.59;99784.72;5010881;28;45821;-85
2022/03/30 02:41:11;;;;;;;;;53.25;42.00;;;;;12.98;70.48;99777.69;5008981;28;45103;-85
2022/03/30 02:43:37;;;;;;;;;53.50;44.50;;;;;12.95;70.65;99769.72;5008918;28;45442;-82
2022/03/30 02:46:03;;;;;;;;;48.50;39.75;;;;;12.76;70.78;99734.44;5008665;28;45210;-84
2022/03/30 02:48:31;;;;;;;;;47.25;40.25;;;;;12.54;70.69;99687.63;5008331;28;45974;-85
2022/03/30 02:51:01;;;;;;;;;51.25;43.00;;;;;12.89;71.08;99754.75;5010546;28;45482;-84
2022/03/30 02:53:27;;;;;;;;;49.50;41.00;;;;;12.90;70.79;99745.94;5010627;28;45264;-85
2022/03/30 02:55:52;;;;;;;;;50.25;39.50;;;;;12.61;70.68;99692.97;4990754;28;45114;-81
2022/03/30 02:58:19;;;;;;;;;52.67;42.00;;;;;12.61;70.87;99686.78;5009683;28;45875;-83
2022/03/30 03:00:45;;;;;;;;;52.75;43.25;;;;;12.75;70.93;99714.19;5009654;28;45407;-85
2022/03/30 03:03:10;;;;;;;;;52.50;41.75;;;;;12.67;70.84;99694.78;5010255;28;45072;-82
2022/03/30 03:05:37;;;;;;;;;53.50;43.00;;;;;12.63;70.85;99699.13;5009928;28;45091;-87
2022/03/30 03:08:05;;;;;;;;;51.50;42.75;;;;;12.65;70.80;99692.13;5008995;28;46479;-83
2022/03/30 03:10:32;;;;;;;;;51.50;43.00;;;;;13.04;70.83;99755.75;5009216;28;45448;-85
2022/03/30 03:13:04;;;;;;;;;54.00;43.00;;;;;12.87;70.92;99722.22;5008380;28;45363;-83
2022/03/30 03:15:34;;;;;;;;;52.75;41.25;;;;;12.79;70.85;99710.69;4989989;28;45195;-87
2022/03/30 03:18:01;;;;;;;;;48.25;41.00;;;;;12.88;70.71;99717.81;5008472;28;45515;-83
2022/03/30 03:20:27;;;;;;;;;53.00;42.75;;;;;13.02;70.82;99741.69;4990280;28;45107;-83
2022/03/30 03:22:53;;;;;;;;;53.00;44.50;;;;;13.07;71.09;99746.13;5010296;28;45242;-87
2022/03/30 03:25:18;;;;;;;;;45.75;37.75;;;;;12.74;71.18;99685.16;5009187;28;45127;-86
2022/03/30 03:27:44;;;;;;;;;52.00;43.00;;;;;12.76;70.82;99694.88;5008754;28;45569;-86
2022/03/30 03:30:10;;;;;;;;;55.33;45.33;;;;;12.82;70.91;99697.56;5007040;28;45614;-87
2022/03/30 03:32:36;;;;;;;;;54.50;43.50;;;;;12.81;71.00;99690.53;5010209;28;45078;-84
2022/03/30 03:35:02;;;;;;;;;53.00;42.25;;;;;13.09;71.02;99740.84;4991848;28;45421;-85
2022/03/30 03:37:27;;;;;;;;;51.25;42.75;;;;;12.74;71.18;99678.13;5007686;28;46080;-84
2022/03/30 03:39:53;;;;;;;;;55.00;43.33;;;;;12.86;71.10;99691.44;5007762;28;45228;-85
2022/03/30 03:42:18;;;;;;;;;53.00;42.00;;;;;13.05;71.13;99721.50;5008950;28;45117;-85
2022/03/30 03:44:44;;;;;;;;;54.50;45.25;;;;;12.89;71.13;99693.22;5009539;28;45252;-84
2022/03/30 03:47:10;;;;;;;;;52.50;43.00;;;;;12.94;71.22;99706.44;5008852;28;45268;-85
2022/03/30 03:49:36;;;;;;;;;53.50;42.75;;;;;13.04;71.13;99719.69;5007574;28;45169;-84
2022/03/30 03:52:02;;;;;;;;;54.00;44.00;;;;;12.99;71.12;99713.50;5007541;28;45226;-86
2022/03/30 03:54:28;;;;;;;;;51.00;42.00;;;;;13.05;71.12;99731.13;5006028;28;45073;-83
2022/03/30 03:56:53;;;;;;;;;56.00;45.75;;;;;12.70;71.19;99665.78;5009541;28;45247;-83
2022/03/30 03:59:19;;;;;;;;;62.00;48.33;;;;;12.82;71.25;99672.94;5005397;28;45399;-84
2022/03/30 04:01:44;;;;;;;;;58.00;48.00;;;;;12.84;71.30;99671.19;5006845;28;45904;-86
2022/03/30 04:04:09;;;;;;;;;56.00;46.00;;;;;12.90;71.33;99687.06;5006177;28;45237;-84
2022/03/30 04:06:35;;;;;;;;;54.50;44.75;;;;;13.02;71.06;99710.91;5008982;28;45874;-86
2022/03/30 04:09:00;;;;;;;;;50.75;39.50;;;;;12.87;71.17;99680.03;5009616;28;44998;-84
2022/03/30 04:11:25;;;;;;;;;60.50;47.00;;;;;12.98;71.32;99698.56;5008319;28;45109;-83
2022/03/30 04:13:51;;;;;;;;;57.33;46.00;;;;;12.87;71.34;99680.03;5008993;28;45297;-85
2022/03/30 04:16:17;;;;;;;;;56.00;46.00;;;;;12.95;71.47;99692.38;5008594;28;45071;-81
2022/03/30 04:18:43;;;;;;;;;53.50;45.25;;;;;13.08;71.33;99712.69;4991018;28;45071;-84
2022/03/30 04:21:10;;;;;;;;;56.00;46.25;;;;;13.00;71.38;99695.91;5006948;28;45126;-86
2022/03/30 04:23:36;;;;;;;;;59.75;48.25;;;;;12.99;71.50;99697.69;5007969;28;44966;-83
2022/03/30 04:26:01;;;;;;;;;62.75;49.75;;;;;12.98;71.33;99693.28;5006785;28;45219;-84
2022/03/30 04:28:27;;;;;;;;;57.25;46.50;;;;;13.05;71.25;99707.41;5002802;28;45455;-83
2022/03/30 04:30:52;;;;;;;;;58.75;46.75;;;;;12.88;71.13;99667.72;5009236;28;45205;-85
2022/03/30 04:33:18;;;;;;;;;59.50;47.50;;;;;13.09;71.44;99696.00;4990101;28;45446;-84
2022/03/30 04:35:43;;;;;;;;;58.33;47.00;;;;;13.22;71.49;99720.75;5004103;28;48980;-84
2022/03/30 04:38:09;;;;;;;;;59.75;46.00;;;;;13.24;71.08;99711.09;5008898;28;45010;-83
2022/03/30 04:40:35;;;;;;;;;57.50;46.25;;;;;13.14;71.51;99704.81;4979349;28;45302;-83
2022/03/30 04:43:00;;;;;;;;;58.50;46.25;;;;;13.12;71.40;99702.19;5001944;28;45054;-84
2022/03/30 04:45:26;;;;;;;;;54.00;44.50;;;;;12.93;71.14;99657.19;4991399;28;47407;-82
2022/03/30 04:47:54;;;;;;;;;37.50;31.75;;;;;13.23;71.05;99706.69;4988645;28;45425;-85
2022/03/30 04:50:24;;;;;;;;;58.00;47.00;;;;;13.05;71.29;99670.47;4973840;28;45453;-81
2022/03/30 04:52:49;;;;;;;;;52.00;42.00;;;;;13.23;70.90;99697.03;4995713;28;45582;-83
2022/03/30 04:55:15;;;;;;;;;52.00;42.25;;;;;13.00;71.06;99659.00;4999747;28;45433;-83
2022/03/30 04:57:41;;;;;;;;;51.00;43.25;;;;;13.05;71.48;99666.09;5000458;28;45137;-82
2022/03/30 05:00:10;;;;;;;;;55.50;44.00;;;;;13.26;71.66;99694.41;4996348;28;45298;-83
2022/03/30 05:02:36;;;;;;;;;55.00;45.50;;;;;13.27;71.73;99701.44;5008385;28;45331;-84
2022/03/30 05:05:02;;;;;;;;;59.00;47.25;;;;;12.95;71.68;99640.50;5008927;28;45777;-84
2022/03/30 05:07:28;;;;;;;;;58.25;46.25;;;;;13.08;71.63;99670.50;5008797;28;45154;-83
2022/03/30 05:09:53;;;;;;;;;63.33;50.00;;;;;13.01;72.20;99659.03;4996348;28;45140;-84
2022/03/30 05:12:18;;;;;;;;;63.75;50.00;;;;;13.13;72.21;99674.03;5005029;28;45381;-80
2022/03/30 05:14:44;;;;;;;;;59.50;47.25;;;;;12.96;72.20;99639.66;4995747;28;45505;-83
2022/03/30 05:17:10;;;;;;;;;56.00;46.50;;;;;13.02;72.45;99658.16;5000419;28;45366;-83
2022/03/30 05:19:37;;;;;;;;;59.75;49.00;;;;;12.92;72.14;99643.13;5006731;28;45288;-84
2022/03/30 05:22:04;;;;;;;;;64.75;50.00;;;;;13.25;72.33;99695.28;4996529;28;45181;-86
2022/03/30 05:24:30;;;;;;;;;56.50;47.25;;;;;13.20;71.92;99694.34;5005538;28;45870;-84
2022/03/30 05:26:55;;;;;;;;;56.25;47.25;;;;;13.12;72.17;99685.47;5008120;28;45117;-83
2022/03/30 05:29:21;;;;;;;;;57.33;47.33;;;;;13.08;72.54;99674.00;4996618;28;45148;-82
2022/03/30 05:31:46;;;;;;;;;62.25;49.75;;;;;13.12;72.49;99682.84;4988264;28;45371;-85
2022/03/30 05:34:11;;;;;;;;;58.00;48.00;;;;;13.09;72.50;99680.16;4979510;28;47500;-84
2022/03/30 05:36:37;;;;;;;;;60.00;48.00;;;;;12.77;72.55;99624.56;5010284;28;45396;-82
2022/03/30 05:39:03;;;;;;;;;59.00;47.50;;;;;13.22;72.05;99691.75;4992675;28;45147;-84
2022/03/30 05:41:29;;;;;;;;;58.50;47.25;;;;;12.86;72.31;99635.19;5010561;28;45157;-84
2022/03/30 05:43:54;;;;;;;;;60.00;47.25;;;;;13.07;72.33;99674.00;4993188;28;46980;-80
2022/03/30 05:46:19;;;;;;;;;62.50;48.50;;;;;13.06;72.39;99672.25;5010436;28;45125;-83
2022/03/30 05:48:45;;;;;;;;;59.50;47.50;;;;;12.91;72.35;99659.84;5011631;28;45044;-81
2022/03/30 05:51:10;;;;;;;;;59.00;47.50;;;;;12.77;72.70;99624.56;5011501;28;45077;-86
2022/03/30 05:53:36;;;;;;;;;58.75;48.25;;;;;12.90;72.64;99658.91;5010902;28;46011;-83
2022/03/30 05:56:02;;;;;;;;;53.50;44.00;;;;;12.87;72.54;99650.13;5011358;28;44983;-85
2022/03/30 05:58:27;;;;;;;;;59.00;47.75;;;;;12.91;72.20;99658.06;5011869;28;45030;-84
2022/03/30 06:00:53;;;;;;;;;60.00;49.00;;;;;12.84;72.03;99653.59;5009509;28;45155;-83
2022/03/30 06:03:18;;;;;;;;;60.33;48.00;;;;;12.91;72.54;99673.91;5015073;28;46518;-85
2022/03/30 06:05:44;;;;;;;;;57.00;46.25;;;;;12.66;72.41;99619.22;5008231;28;45190;-84
2022/03/30 06:08:09;;;;;;;;;63.75;48.75;;;;;13.02;72.46;99681.88;4992180;28;45006;-83
2022/03/30 06:10:35;;;;;;;;;59.00;47.25;;;;;12.89;72.62;99662.44;5009896;28;45076;-85
2022/03/30 06:13:02;;;;;;;;;57.00;46.75;;;;;12.79;72.71;99642.16;5010040;28;45421;-84
2022/03/30 06:15:28;;;;;;;;;58.25;47.25;;;;;13.17;72.60;99700.47;5010250;28;45944;-80
2022/03/30 06:17:55;;;;;;;;;60.00;48.75;;;;;13.21;72.70;99711.94;5009682;28;45214;-84
2022/03/30 06:20:24;;;;;;;;;62.50;50.50;;;;;12.94;72.22;99661.59;5010811;28;45420;-80
2022/03/30 06:22:51;;;;;;;;;61.75;49.00;;;;;13.09;72.12;99678.41;5010873;28;45456;-81
2022/03/30 06:25:19;;;;;;;;;67.50;52.75;;;;;12.91;71.97;99638.75;5009606;28;45502;-80
2022/03/30 06:27:44;;;;;;;;;60.75;48.00;;;;;13.21;72.04;99692.59;5009402;28;45031;-81
2022/03/30 06:30:10;;;;;;;;;66.00;51.00;;;;;12.97;71.71;99654.59;5010904;28;45579;-83
2022/03/30 06:32:36;;;;;;;;;62.75;50.00;;;;;13.02;71.87;99660.78;5009745;28;45374;-80
2022/03/30 06:35:03;;;;;;;;;60.75;48.50;;;;;13.20;72.09;99691.72;5014229;28;45011;-83
2022/03/30 06:37:28;;;;;;;;;64.75;50.25;;;;;13.23;72.37;99696.13;5009873;28;45224;-82
2022/03/30 06:39:54;;;;;;;;;62.00;49.75;;;;;13.22;72.03;99694.38;5009795;28;45183;-81
2022/03/30 06:42:19;;;;;;;;;61.25;49.25;;;;;13.14;72.05;99676.69;5010702;28;45387;-84
2022/03/30 06:44:45;;;;;;;;;64.00;52.00;;;;;13.38;72.20;99723.50;5011334;28;45370;-80
2022/03/30 06:47:11;;;;;;;;;65.50;51.25;;;;;13.27;72.24;99696.16;5009345;28;45014;-83
2022/03/30 06:49:37;;;;;;;;;62.50;48.50;;;;;13.35;72.04;99702.41;5009336;28;45200;-81
2022/03/30 06:52:08;;;;;;;;;66.50;52.75;;;;;13.31;72.24;99697.97;5009297;28;45503;-85
2022/03/30 06:54:34;;;;;;;;;66.00;49.25;;;;;13.50;72.28;99716.56;5009772;28;45246;-81
2022/03/30 06:57:01;;;;;;;;;65.50;52.25;;;;;13.29;71.90;99691.78;5011470;28;45270;-86
2022/03/30 06:59:27;;;;;;;;;69.33;55.00;;;;;13.33;71.60;99684.78;4969557;28;1139132;-83
2022/03/30 07:01:55;;;;;;;;;69.25;54.75;;;;;13.31;71.86;99694.44;5009343;28;46132;-82
2022/03/30 07:04:20;;;;;;;;;71.50;54.75;;;;;13.39;71.71;99690.97;5010622;28;45467;-83
2022/03/30 07:12:13;;;;;;;;;67.25;54.00;;;;;13.22;71.58;99653.03;5010230;28;45449;-83
2022/03/30 07:14:39;;;;;;;;;66.50;52.25;;;;;12.96;71.78;99604.50;5010812;28;46246;-84
2022/03/30 07:17:04;;;;;;;;;72.00;56.00;;;;;13.67;71.58;99730.72;4992301;28;45172;-87
2022/03/30 07:19:30;;;;;;;;;70.25;54.25;;;;;13.15;71.40;99635.34;4993093;28;45016;-84
2022/03/30 07:21:55;;;;;;;;;68.50;54.00;;;;;13.74;71.90;99721.97;4992403;28;47161;-86
2022/03/30 07:24:21;;;;;;;;;41.50;28.50;;;;;13.78;72.16;99723.75;4990739;28;45130;-86
2022/03/30 07:26:46;;;;;;;;;67.50;54.50;;;;;12.95;71.81;99581.59;4993057;28;45433;-84
2022/03/30 07:29:12;;;;;;;;;66.25;52.00;;;;;13.32;71.44;99614.41;4992506;28;45033;-85
2022/03/30 07:31:37;;;;;;;;;69.67;54.67;;;;;13.56;71.33;99646.19;5009789;28;45633;-86
2022/03/30 07:34:04;;;;;;;;;66.50;53.25;;;;;13.92;71.19;99694.75;5009654;28;45019;-82
2022/03/30 07:36:30;;;;;;;;;69.25;54.25;;;;;13.52;70.89;99615.38;5010417;28;45098;-92
2022/03/30 07:38:55;;;;;;;;;67.00;52.25;;;;;14.10;71.23;99715.09;5010279;28;45025;-84
2022/03/30 07:41:24;;;;;;;;;69.50;55.25;;;;;14.13;70.69;99713.31;5009978;28;45638;-89
2022/03/30 07:43:49;;;;;;;;;72.00;56.00;;;;;13.52;70.22;99603.94;4992891;28;45387;-87
2022/03/30 07:46:15;;;;;;;;;73.75;55.50;;;;;13.34;70.57;99562.50;4991866;28;45372;-81
2022/03/30 07:48:41;;;;;;;;;72.25;55.25;;;;;14.00;70.22;99679.84;4992490;28;45241;-81
2022/03/30 07:51:06;;;;;;;;;70.00;55.25;;;;;14.09;70.50;99681.63;5009222;28;45109;-82
2022/03/30 07:53:32;;;;;;;;;72.00;56.00;;;;;13.91;70.00;99634.88;4992749;28;45036;-89
2022/03/30 07:55:58;;;;;;;;;72.00;57.00;;;;;14.30;69.57;99697.53;5023105;28;45154;-80
2022/03/30 07:58:23;;;;;;;;;72.75;56.25;;;;;14.20;70.04;99675.50;5006031;28;45180;-81
2022/03/30 08:00:49;;;;;;;;;72.00;56.75;;;;;14.47;70.04;99700.22;5009096;28;46201;-80
2022/03/30 08:03:14;;;;;;;;;68.25;54.25;;;;;14.31;69.63;99659.66;5008774;28;45054;-85
2022/03/30 08:05:40;;;;;;;;;72.75;59.25;;;;;14.44;69.38;99676.44;5010032;28;45335;-86
2022/03/30 08:08:07;;;;;;;;;73.67;58.67;;;;;14.19;69.76;99620.88;5009206;28;45197;-83
2022/03/30 08:10:35;;;;;;;;;71.50;57.50;;;;;14.60;69.52;99680.88;5009300;28;46088;-81
2022/03/30 08:13:01;;;;;;;;;73.50;56.75;;;;;14.68;69.63;99688.84;5008266;28;45393;-83
2022/03/30 08:15:26;;;;;;;;;73.00;57.75;;;;;14.51;69.35;99649.13;5008879;28;45044;-81
2022/03/30 08:17:52;;;;;;;;;73.75;56.50;;;;;14.60;68.72;99653.56;5009487;28;44915;-83
2022/03/30 08:23:03;;;;;;;;;73.00;56.50;;;;;14.57;68.26;99648.25;5009680;28;45478;-84
2022/03/30 08:25:28;;;;;;;;;67.75;54.75;;;;;14.69;68.56;99672.09;5008670;28;45158;-82
2022/03/30 08:27:54;;;;;;;;;77.00;61.50;;;;;14.87;68.57;99695.88;5008952;28;45028;-84
2022/03/30 08:30:19;;;;;;;;;72.00;55.50;;;;;14.55;68.20;99650.03;5003439;28;45432;-84
2022/03/30 08:32:45;;;;;;;;;75.50;60.25;;;;;14.69;68.54;99688.84;5009277;28;45121;-84
2022/03/30 08:35:12;;;;;;;;;73.25;58.75;;;;;14.60;68.59;99680.00;5008951;28;45216;-84
2022/03/30 08:37:38;;;;;;;;;73.25;57.25;;;;;14.37;68.78;99658.78;5008983;28;45034;-82
2022/03/30 08:40:04;;;;;;;;;76.75;61.25;;;;;14.32;69.12;99674.63;5008544;28;45267;-83
2022/03/30 08:42:30;;;;;;;;;72.00;56.25;;;;;14.09;69.20;99655.22;5009103;28;45227;-84
2022/03/30 08:44:55;;;;;;;;;70.50;55.25;;;;;14.30;69.30;99709.88;5008660;28;45248;-84
2022/03/30 08:47:20;;;;;;;;;75.00;59.75;;;;;14.14;69.48;99693.97;4990826;28;45013;-82
2022/03/30 08:49:47;;;;;;;;;79.00;65.25;;;;;13.89;69.54;99663.03;5008869;28;46050;-84
2022/03/30 08:52:13;;;;;;;;;77.25;63.75;;;;;13.86;69.34;99669.22;4988943;28;45604;-83
2022/03/30 08:54:44;;;;;;;;;80.00;67.00;;;;;14.00;69.47;99702.72;5007923;28;45322;-81
2022/03/30 08:57:10;;;;;;;;;75.50;62.50;;;;;13.96;69.75;99703.59;5008009;28;45201;-83
2022/03/30 08:59:36;;;;;;;;;75.75;63.50;;;;;13.72;70.03;99680.59;5007554;28;45332;-83
2022/03/30 09:02:01;;;;;;;;;76.75;63.00;;;;;13.54;70.11;99647.94;5008913;28;44913;-84
2022/03/30 09:04:27;;;;;;;;;75.75;63.25;;;;;13.51;69.90;99639.13;5008811;28;44923;-83
2022/03/30 09:06:54;;;;;;;;;78.50;61.75;;;;;13.66;70.09;99676.16;5008371;28;45142;-82
2022/03/30 09:09:27;;;;;;;;;74.25;58.00;;;;;13.51;70.34;99647.94;5007159;28;45704;-81
2022/03/30 09:11:55;;;;;;;;;73.00;58.75;;;;;13.64;70.13;99677.91;5008223;28;45086;-84
2022/03/30 09:14:28;;;;;;;;;74.25;57.50;;;;;13.52;70.09;99662.88;5007774;28;45098;-82
2022/03/30 09:16:57;;;;;;;;;75.50;61.00;;;;;13.74;70.18;99695.53;5008527;28;44955;-81
2022/03/30 09:19:23;;;;;;;;;73.25;59.75;;;;;13.52;70.42;99668.16;5008359;28;45298;-84
2022/03/30 09:21:51;;;;;;;;;76.75;61.00;;;;;13.81;70.21;99713.22;5008003;28;45361;-84
2022/03/30 09:24:22;;;;;;;;;71.25;56.50;;;;;13.82;70.28;99714.97;5008308;28;45281;-84
2022/03/30 09:26:50;;;;;;;;;72.50;58.25;;;;;13.81;70.17;99715.84;5008540;28;45015;-83
2022/03/30 09:29:18;;;;;;;;;68.00;53.25;;;;;13.73;69.99;99701.72;5007703;28;45403;-84
2022/03/30 09:31:45;;;;;;;;;71.00;56.50;;;;;13.81;70.30;99709.69;5006918;28;45098;-83
2022/03/30 09:34:11;;;;;;;;;68.00;55.00;;;;;13.66;70.49;99689.38;5008261;28;45218;-83
2022/03/30 09:36:41;;;;;;;;;68.25;54.75;;;;;13.87;70.64;99709.72;5008163;28;45010;-83
2022/03/30 09:39:26;;;;;;;;;69.75;55.50;;;;;13.68;69.91;99674.41;4989703;28;47722;-82
2022/03/30 09:41:53;;;;;;;;;66.50;53.00;;;;;13.75;70.12;99670.94;5008288;28;45275;-81
2022/03/30 09:44:20;;;;;;;;;66.75;53.25;;;;;13.98;70.08;99696.53;5007669;28;45251;-84
2022/03/30 09:47:03;;;;;;;;;67.75;52.25;;;;;14.02;69.84;99706.25;5008430;28;45216;-83
2022/03/30 09:49:53;;;;;;;;;66.50;52.25;;;;;14.05;69.73;99701.00;5004801;28;46032;-83
2022/03/30 09:52:23;;;;;;;;;67.50;52.75;;;;;13.83;69.90;99655.97;4997030;28;45054;-83
2022/03/30 09:54:50;;;;;;;;;66.75;53.00;;;;;14.13;69.66;99702.75;5007932;28;45062;-80
2022/03/30 09:57:25;;;;;;;;;66.00;51.25;;;;;14.19;69.95;99705.44;5007729;28;45099;-81
2022/03/30 10:00:12;;;;;;;;;66.75;52.00;;;;;13.95;69.35;99649.88;5007713;28;45812;-83
2022/03/30 10:02:38;;;;;;;;;57.25;47.50;;;;;14.26;69.06;99698.41;5007714;28;45396;-81
2022/03/30 10:05:05;;;;;;;;;64.75;52.00;;;;;14.03;68.94;99655.16;5007632;28;45278;-85
2022/03/30 10:07:31;;;;;;;;;62.75;49.00;;;;;14.25;68.97;99691.34;5007500;28;45236;-85
2022/03/30 10:09:58;;;;;;;;;56.50;46.00;;;;;14.22;68.70;99683.41;5007286;28;45745;-82
2022/03/30 10:12:26;;;;;;;;;58.50;47.00;;;;;14.32;69.06;99694.88;5005833;28;45281;-84
2022/03/30 10:14:51;;;;;;;;;61.25;47.50;;;;;14.38;68.59;99694.91;5008013;28;45436;-85
2022/03/30 10:17:18;;;;;;;;;61.00;49.00;;;;;14.29;68.70;99664.06;5007772;28;45093;-83
2022/03/30 10:19:46;;;;;;;;;61.25;50.00;;;;;14.09;69.00;99611.16;5007551;28;45806;-82
2022/03/30 10:22:25;;;;;;;;;64.25;51.25;;;;;14.50;68.73;99684.41;5010827;28;44956;-84
2022/03/30 10:25:22;;;;;;;;;68.25;54.00;;;;;14.54;68.89;99680.00;5010878;28;45109;-83
2022/03/30 10:27:58;;;;;;;;;74.00;58.25;;;;;14.40;69.16;99656.16;5011406;28;45210;-80
2022/03/30 10:30:29;;;;;;;;;72.75;55.25;;;;;14.22;68.96;99613.81;5011675;28;45553;-83
2022/03/30 10:33:00;;;;;;;;;71.25;55.75;;;;;14.74;68.83;99680.91;5011394;28;45358;-82
2022/03/30 10:35:46;;;;;;;;;72.75;56.00;;;;;14.52;68.71;99631.50;5010513;28;45149;-84
2022/03/30 10:38:12;;;;;;;;;71.75;56.00;;;;;14.74;68.75;99657.09;5010453;28;45142;-80
2022/03/30 10:40:40;;;;;;;;;72.75;55.25;;;;;14.65;68.72;99633.28;5011055;28;45163;-82
2022/03/30 10:43:06;;;;;;;;;71.75;56.75;;;;;14.89;68.47;99678.25;5009548;28;45241;-79
2022/03/30 10:45:39;;;;;;;;;69.50;54.75;;;;;14.52;68.06;99610.34;5008061;28;45201;-80
2022/03/30 10:48:34;;;;;;;;;69.75;53.00;;;;;14.66;68.33;99621.81;5010207;28;45058;-81
2022/03/30 10:51:16;;;;;;;;;68.00;54.00;;;;;14.85;68.12;99642.09;5010060;28;45269;-80
2022/03/30 10:53:43;;;;;;;;;69.00;54.75;;;;;14.77;68.11;99606.81;5010526;28;45168;-80
2022/03/30 10:56:18;;;;;;;;;66.50;51.25;;;;;15.21;67.94;99656.16;5008687;28;45538;-80
2022/03/30 10:58:49;;;;;;;;;67.50;52.25;;;;;15.28;67.92;99655.28;4999783;28;45295;-84
2022/03/30 11:01:24;;;;;;;;;71.00;54.50;;;;;15.25;67.00;99643.81;5010017;28;45444;-83
2022/03/30 11:04:18;;;;;;;;;71.50;56.75;;;;;15.40;67.23;99660.53;5010253;28;45381;-81
2022/03/30 11:07:06;;;;;;;;;70.50;54.00;;;;;15.22;67.01;99607.63;5001285;28;45200;-81
2022/03/30 11:09:33;;;;;;;;;65.75;52.50;;;;;15.26;66.43;99603.22;5009822;28;45148;-83
2022/03/30 11:12:09;;;;;;;;;68.25;54.25;;;;;15.51;66.36;99620.78;5009982;28;45937;-84
2022/03/30 11:14:43;;;;;;;;;65.25;51.25;;;;;15.60;66.35;99611.94;5010604;28;45347;-84
2022/03/30 11:17:10;;;;;;;;;68.50;53.25;;;;;15.92;66.10;99639.19;5010658;28;45125;-82
2022/03/30 11:19:47;;;;;;;;;70.50;55.00;;;;;16.06;65.70;99628.53;5009428;28;45379;-79
2022/03/30 11:22:15;;;;;;;;;67.50;52.25;;;;;16.12;65.03;99619.66;5010263;28;46315;-82
2022/03/30 11:25:04;;;;;;;;;70.00;54.25;;;;;16.38;65.11;99625.66;5009452;28;45270;-80
2022/03/30 11:27:29;;;;;;;;;69.00;54.00;;;;;16.23;65.07;99552.41;4999547;28;45070;-81